createdAt,value
2022-07-27T00:02:27.706Z,99.90
2022-07-27T00:04:58.030Z,99.90
2022-07-27T00:07:28.388Z,99.90
2022-07-27T00:09:58.680Z,99.90
2022-07-27T00:12:29.125Z,99.90
2022-07-27T00:15:01.210Z,99.90
2022-07-27T00:17:31.851Z,99.90
2022-07-27T00:20:02.244Z,99.90
2022-07-27T00:22:32.490Z,99.90
2022-07-27T00:25:02.899Z,99.90
2022-07-27T00:27:33.287Z,99.90
2022-07-27T00:30:04.016Z,99.90
2022-07-27T00:32:34.467Z,99.90
2022-07-27T00:35:04.880Z,99.90
2022-07-27T00:40:21.354Z,99.90
2022-07-27T00:42:51.869Z,99.90
2022-07-27T00:45:22.730Z,99.90
2022-07-27T00:47:55.171Z,99.90
2022-07-27T00:50:26.137Z,99.90
2022-07-27T00:52:57.459Z,99.90
2022-07-27T00:55:29.941Z,99.90
2022-07-27T00:58:00.390Z,99.90
2022-07-27T01:03:17.019Z,99.90
2022-07-27T01:05:47.621Z,99.90
2022-07-27T01:08:18.793Z,99.90
2022-07-27T01:10:49.852Z,99.90
2022-07-27T01:13:21.299Z,99.90
2022-07-27T01:15:52.440Z,99.90
2022-07-27T01:18:35.124Z,99.90
2022-07-27T01:21:07.909Z,99.90
2022-07-27T01:26:24.471Z,99.90
2022-07-27T01:29:00.631Z,99.90
2022-07-27T01:31:31.829Z,99.90
2022-07-27T01:34:02.494Z,99.90
2022-07-27T01:36:33.256Z,99.90
2022-07-27T01:39:03.630Z,99.90
2022-07-27T01:41:34.027Z,99.90
2022-07-27T01:44:04.362Z,99.90
2022-07-27T01:46:34.957Z,99.90
2022-07-27T01:49:08.445Z,99.90
2022-07-27T01:51:39.040Z,99.90
2022-07-27T01:54:09.529Z,99.90
2022-07-27T01:56:39.930Z,99.90
2022-07-27T01:59:16.389Z,99.90
2022-07-27T02:01:47.843Z,99.90
2022-07-27T02:04:20.393Z,99.90
2022-07-27T02:06:50.707Z,99.90
2022-07-27T02:09:22.998Z,99.90
2022-07-27T02:12:07.111Z,99.90
2022-07-27T02:17:26.285Z,99.90
2022-07-27T02:20:00.877Z,99.90
2022-07-27T02:25:19.195Z,99.90
2022-07-27T02:27:50.164Z,99.90
2022-07-27T02:30:20.579Z,99.90
2022-07-27T02:35:36.662Z,99.90
2022-07-27T02:38:06.876Z,99.90
2022-07-27T02:40:37.172Z,99.90
2022-07-27T02:43:07.451Z,99.90
2022-07-27T02:45:37.714Z,99.90
2022-07-27T02:48:08.374Z,99.90
2022-07-27T02:50:38.795Z,99.90
2022-07-27T02:53:09.159Z,99.90
2022-07-27T02:55:39.545Z,99.90
2022-07-27T02:58:09.881Z,99.90
2022-07-27T03:00:41.771Z,99.90
2022-07-27T03:03:13.826Z,99.90
2022-07-27T03:05:44.317Z,99.90
2022-07-27T03:08:14.690Z,99.90
2022-07-27T03:10:48.944Z,99.90
2022-07-27T03:13:19.514Z,99.90
2022-07-27T03:15:49.838Z,99.90
2022-07-27T03:18:20.432Z,99.90
2022-07-27T03:20:50.668Z,99.90
2022-07-27T03:23:22.148Z,99.90
2022-07-27T03:25:52.362Z,99.90
2022-07-27T03:28:22.664Z,99.90
2022-07-27T03:30:53.158Z,99.90
2022-07-27T03:33:23.410Z,99.90
2022-07-27T03:35:54.030Z,99.90
2022-07-27T03:38:25.363Z,99.90
2022-07-27T03:40:55.672Z,99.90
2022-07-27T03:43:26.105Z,99.80
2022-07-27T03:45:56.416Z,98.60
2022-07-27T03:48:26.933Z,98.80
2022-07-27T03:50:57.674Z,99.40
2022-07-27T03:53:27.946Z,98.70
2022-07-27T03:55:58.457Z,98.10
2022-07-27T03:58:28.741Z,98.90
2022-07-27T04:00:59.124Z,98.30
2022-07-27T04:03:29.619Z,97.30
2022-07-27T04:05:59.995Z,97.10
2022-07-27T04:08:32.053Z,96.80
2022-07-27T04:11:04.136Z,97.20
2022-07-27T04:13:38.174Z,97.50
2022-07-27T04:16:08.700Z,97.50
2022-07-27T04:18:39.076Z,97.50
2022-07-27T04:21:09.262Z,95.50
2022-07-27T04:23:39.549Z,96.10
2022-07-27T04:26:09.963Z,96.80
2022-07-27T04:28:40.326Z,96.60
2022-07-27T04:31:10.883Z,97.20
2022-07-27T04:33:41.213Z,96.30
2022-07-27T04:36:12.235Z,96.20
2022-07-27T04:38:42.537Z,95.70
2022-07-27T04:41:13.108Z,95.40
2022-07-27T04:43:43.944Z,95.20
2022-07-27T04:46:15.558Z,95.30
2022-07-27T04:48:49.204Z,94.90
2022-07-27T04:51:23.332Z,93.90
2022-07-27T04:53:58.353Z,93.80
2022-07-27T04:56:29.732Z,93.60
2022-07-27T04:59:00.126Z,94.70
2022-07-27T05:01:35.130Z,94.00
2022-07-27T05:04:07.344Z,92.50
2022-07-27T05:06:37.660Z,94.00
2022-07-27T05:09:08.952Z,92.50
2022-07-27T05:11:39.475Z,92.10
2022-07-27T05:14:09.839Z,92.10
2022-07-27T05:16:42.664Z,92.10
2022-07-27T05:19:14.703Z,91.40
2022-07-27T05:21:45.374Z,91.10
2022-07-27T05:24:15.717Z,92.30
2022-07-27T05:26:47.718Z,92.90
2022-07-27T05:29:18.796Z,92.80
2022-07-27T05:31:49.174Z,91.20
2022-07-27T05:34:19.593Z,91.20
2022-07-27T05:36:49.831Z,90.80
2022-07-27T05:39:20.655Z,92.50
2022-07-27T05:41:51.608Z,93.60
2022-07-27T05:44:21.883Z,92.20
2022-07-27T05:46:52.169Z,92.90
2022-07-27T05:49:22.465Z,93.50
2022-07-27T05:51:52.796Z,92.60
2022-07-27T05:54:23.154Z,92.10
2022-07-27T05:56:54.431Z,91.30
2022-07-27T05:59:24.640Z,93.10
2022-07-27T06:01:55.136Z,93.10
2022-07-27T06:04:25.458Z,92.90
2022-07-27T06:07:12.572Z,92.60
2022-07-27T06:09:43.554Z,92.90
2022-07-27T06:12:14.936Z,91.60
2022-07-27T06:14:45.235Z,92.70
2022-07-27T06:17:21.725Z,92.80
2022-07-27T06:19:51.987Z,92.40
2022-07-27T06:22:22.306Z,92.10
2022-07-27T06:24:52.463Z,91.80
2022-07-27T06:27:25.989Z,92.10
2022-07-27T06:29:58.913Z,92.60
2022-07-27T06:32:29.310Z,91.40
2022-07-27T06:34:59.536Z,91.90
2022-07-27T06:37:31.997Z,91.30
2022-07-27T06:40:03.372Z,91.40
2022-07-27T06:42:34.026Z,92.50
2022-07-27T06:45:04.235Z,92.20
2022-07-27T06:47:35.575Z,92.90
2022-07-27T06:50:20.730Z,91.80
2022-07-27T06:52:51.688Z,92.30
2022-07-27T06:55:22.047Z,92.50
2022-07-27T06:57:52.509Z,92.40
2022-07-27T07:00:22.804Z,92.40
2022-07-27T07:02:57.294Z,91.80
2022-07-27T07:05:28.273Z,92.00
2022-07-27T07:07:59.515Z,92.60
2022-07-27T07:10:31.031Z,92.90
2022-07-27T07:13:07.549Z,93.60
2022-07-27T07:15:40.270Z,92.80
2022-07-27T07:18:11.084Z,94.00
2022-07-27T07:20:41.931Z,93.90
2022-07-27T07:23:13.193Z,93.30
2022-07-27T07:25:45.407Z,93.40
2022-07-27T07:28:15.871Z,94.30
2022-07-27T07:30:46.301Z,94.00
2022-07-27T07:33:16.688Z,94.10
2022-07-27T07:36:12.445Z,94.40
2022-07-27T07:38:53.245Z,94.60
2022-07-27T07:41:30.366Z,94.60
2022-07-27T07:44:09.711Z,94.30
2022-07-27T07:46:50.442Z,95.00
2022-07-27T07:49:50.790Z,94.20
2022-07-27T07:52:31.441Z,93.90
2022-07-27T07:55:19.787Z,93.40
2022-07-27T07:58:45.883Z,93.40
2022-07-27T08:01:49.292Z,93.50
2022-07-27T08:04:26.136Z,92.90
2022-07-27T08:07:00.974Z,93.90
2022-07-27T08:09:35.892Z,93.80
2022-07-27T08:14:55.669Z,93.90
2022-07-27T08:17:27.115Z,93.00
2022-07-27T08:19:57.345Z,93.20
2022-07-27T08:22:27.864Z,93.60
2022-07-27T08:24:58.478Z,93.10
2022-07-27T08:27:28.914Z,93.90
2022-07-27T08:29:59.299Z,92.80
2022-07-27T08:32:32.994Z,93.70
2022-07-27T08:35:03.384Z,93.80
2022-07-27T08:37:34.264Z,94.30
2022-07-27T08:42:55.556Z,94.50
2022-07-27T08:45:26.429Z,93.80
2022-07-27T08:47:56.929Z,94.50
2022-07-27T08:50:32.135Z,94.20
2022-07-27T08:53:08.230Z,94.60
2022-07-27T08:55:41.462Z,95.00
2022-07-27T08:58:12.989Z,95.50
2022-07-27T09:00:46.708Z,95.70
2022-07-27T09:03:21.184Z,96.00
2022-07-27T09:05:58.045Z,96.10
2022-07-27T09:08:32.214Z,96.70
2022-07-27T09:11:05.373Z,96.80
2022-07-27T09:13:37.098Z,96.50
2022-07-27T09:16:19.770Z,97.40
2022-07-27T09:19:00.732Z,97.30
2022-07-27T09:21:31.437Z,97.30
2022-07-27T09:24:45.138Z,97.50
2022-07-27T09:27:08.653Z,97.60
2022-07-27T09:29:39.649Z,98.00
2022-07-27T09:32:24.989Z,98.50
2022-07-27T09:34:55.381Z,98.90
2022-07-27T09:37:30.697Z,98.40
2022-07-27T09:40:26.050Z,98.90
2022-07-27T09:44:12.612Z,98.80
2022-07-27T09:46:10.042Z,98.70
2022-07-27T09:48:40.543Z,99.10
2022-07-27T09:51:57.754Z,99.00
2022-07-27T09:54:11.310Z,99.20
2022-07-27T09:56:41.904Z,98.70
2022-07-27T09:59:13.603Z,98.40
2022-07-27T10:01:48.810Z,98.50
2022-07-27T10:04:23.125Z,98.40
2022-07-27T10:07:02.832Z,98.40
2022-07-27T10:09:36.961Z,98.70
2022-07-27T10:12:07.610Z,98.70
2022-07-27T10:14:38.232Z,99.00
2022-07-27T10:17:10.029Z,99.20
2022-07-27T10:19:49.570Z,99.10
2022-07-27T10:22:40.858Z,98.20
2022-07-27T10:25:11.430Z,98.10
2022-07-27T10:27:41.971Z,98.10
2022-07-27T10:30:12.819Z,97.20
2022-07-27T10:32:46.849Z,96.80
2022-07-27T10:35:37.955Z,96.70
2022-07-27T10:38:20.405Z,96.40
2022-07-27T10:41:10.591Z,97.10
2022-07-27T10:43:40.888Z,97.00
2022-07-27T10:46:11.218Z,97.00
2022-07-27T10:48:48.788Z,96.60
2022-07-27T10:51:36.235Z,96.50
2022-07-27T10:54:24.709Z,96.20
2022-07-27T10:57:00.192Z,96.40
2022-07-27T11:00:08.764Z,96.40
2022-07-27T11:02:44.527Z,96.90
2022-07-27T11:08:35.578Z,96.10
2022-07-27T11:10:56.901Z,96.20
2022-07-27T11:13:30.362Z,96.60
2022-07-27T11:16:28.007Z,96.70
2022-07-27T11:19:03.402Z,96.00
2022-07-27T11:21:38.735Z,95.90
2022-07-27T11:24:19.488Z,95.50
2022-07-27T11:26:52.328Z,95.20
2022-07-27T11:29:24.864Z,96.30
2022-07-27T11:31:58.348Z,96.20
2022-07-27T11:34:34.268Z,96.30
2022-07-27T11:37:07.747Z,95.60
2022-07-27T11:42:40.395Z,95.40
2022-07-27T11:45:11.197Z,95.70
2022-07-27T11:47:41.484Z,95.90
2022-07-27T11:50:15.201Z,96.20
2022-07-27T11:52:45.592Z,95.20
2022-07-27T11:55:15.948Z,95.70
2022-07-27T11:57:46.410Z,96.20
2022-07-27T12:00:16.974Z,96.50
2022-07-27T12:02:54.856Z,96.70
2022-07-27T12:05:25.205Z,96.80
2022-07-27T12:07:57.691Z,96.60
2022-07-27T12:10:28.119Z,96.70
2022-07-27T12:12:58.423Z,96.70
2022-07-27T12:15:45.430Z,96.60
2022-07-27T12:18:17.059Z,97.20
2022-07-27T12:20:50.564Z,97.10
2022-07-27T12:23:21.495Z,97.00
2022-07-27T12:25:51.805Z,96.90
2022-07-27T12:28:27.908Z,96.80
2022-07-27T12:30:58.202Z,96.70
2022-07-27T12:33:36.870Z,96.80
2022-07-27T12:36:10.029Z,96.80
2022-07-27T12:38:45.713Z,97.20
2022-07-27T12:41:31.746Z,97.40
2022-07-27T12:44:19.432Z,97.80
2022-07-27T12:47:25.335Z,97.70
2022-07-27T12:50:11.407Z,98.00
2022-07-27T12:52:49.126Z,98.00
2022-07-27T12:55:20.744Z,97.90
2022-07-27T12:57:56.816Z,97.90
2022-07-27T13:00:33.914Z,98.20
2022-07-27T13:03:06.642Z,98.00
2022-07-27T13:05:38.302Z,98.40
2022-07-27T13:08:10.012Z,98.10
2022-07-27T13:10:41.674Z,98.20
2022-07-27T13:13:12.995Z,98.50
2022-07-27T13:15:43.737Z,98.70
2022-07-27T13:18:14.356Z,99.10
2022-07-27T13:20:46.533Z,99.30
2022-07-27T13:23:16.778Z,99.00
2022-07-27T13:25:47.374Z,99.00
2022-07-27T13:28:17.698Z,99.30
2022-07-27T13:30:49.010Z,99.30
2022-07-27T13:33:19.330Z,99.50
2022-07-27T13:35:51.639Z,99.70
2022-07-27T13:38:31.680Z,99.80
2022-07-27T13:41:02.088Z,99.60
2022-07-27T13:43:32.429Z,99.50
2022-07-27T13:46:02.951Z,99.50
2022-07-27T13:48:34.530Z,99.50
2022-07-27T13:51:05.576Z,99.60
2022-07-27T13:53:36.020Z,99.60
2022-07-27T13:56:06.566Z,99.80
2022-07-27T13:58:37.356Z,99.90
2022-07-27T14:01:08.229Z,99.90
2022-07-27T14:03:39.557Z,99.90
2022-07-27T14:06:09.930Z,99.80
2022-07-27T14:08:41.169Z,99.60
2022-07-27T14:11:11.685Z,99.60
2022-07-27T14:13:42.024Z,99.80
2022-07-27T14:16:13.309Z,99.90
2022-07-27T14:18:43.782Z,99.70
2022-07-27T14:21:14.838Z,99.90
2022-07-27T14:23:45.746Z,99.90
2022-07-27T14:26:16.485Z,99.90
2022-07-27T14:28:47.446Z,99.90
2022-07-27T14:31:18.745Z,99.90
2022-07-27T14:33:49.149Z,99.90
2022-07-27T14:36:19.883Z,99.90
2022-07-27T14:38:50.117Z,99.90
2022-07-27T14:41:20.591Z,99.90
2022-07-27T14:43:50.765Z,99.90
2022-07-27T14:46:21.770Z,99.90
2022-07-27T14:49:07.702Z,99.90
2022-07-27T14:51:38.720Z,99.90
2022-07-27T14:54:09.870Z,99.90
2022-07-27T14:56:40.560Z,99.90
2022-07-27T14:59:11.222Z,99.90
2022-07-27T15:01:42.950Z,99.90
2022-07-27T15:04:13.311Z,99.90
2022-07-27T15:06:43.710Z,99.90
2022-07-27T15:09:14.405Z,99.90
2022-07-27T15:11:45.576Z,99.90
2022-07-27T15:14:15.904Z,99.90
2022-07-27T15:16:46.394Z,99.90
2022-07-27T15:19:17.292Z,99.90
2022-07-27T15:21:53.147Z,99.90
2022-07-27T15:24:24.614Z,99.90
2022-07-27T15:26:55.021Z,99.90
2022-07-27T15:29:25.485Z,99.90
2022-07-27T15:31:56.275Z,99.90
2022-07-27T15:34:28.144Z,99.90
2022-07-27T15:36:58.385Z,99.90
2022-07-27T15:39:29.848Z,99.90
2022-07-27T15:42:00.047Z,99.90
2022-07-27T15:44:30.486Z,99.90
2022-07-27T15:47:01.260Z,99.90
2022-07-27T15:49:32.038Z,99.90
2022-07-27T15:52:03.086Z,99.90
2022-07-27T15:54:36.668Z,99.90
2022-07-27T15:57:18.817Z,99.90
2022-07-27T15:59:49.575Z,99.90
2022-07-27T16:02:24.715Z,99.90
2022-07-27T16:04:58.648Z,99.90
2022-07-27T16:07:40.670Z,99.90
2022-07-27T16:10:19.847Z,99.90
2022-07-27T16:12:53.425Z,99.90
2022-07-27T16:15:48.541Z,99.90
2022-07-27T16:18:28.465Z,99.90
2022-07-27T16:21:00.624Z,99.90
2022-07-27T16:23:32.039Z,99.90
2022-07-27T16:26:06.318Z,99.90
2022-07-27T16:28:49.947Z,99.90
2022-07-27T16:31:24.964Z,99.90
2022-07-27T16:33:58.389Z,99.90
2022-07-27T16:36:35.347Z,99.90
2022-07-27T16:39:10.390Z,99.90
2022-07-27T16:41:41.500Z,99.90
2022-07-27T16:44:12.588Z,99.90
2022-07-27T16:46:44.680Z,99.90
2022-07-27T16:49:16.020Z,99.90
2022-07-27T16:51:46.696Z,99.90
2022-07-27T16:54:17.280Z,99.90
2022-07-27T16:56:48.361Z,99.90
2022-07-27T16:59:18.612Z,99.90
2022-07-27T17:01:49.020Z,99.90
2022-07-27T17:04:19.506Z,99.90
2022-07-27T17:06:50.077Z,99.90
2022-07-27T17:09:20.660Z,99.90
2022-07-27T17:11:52.372Z,99.90
2022-07-27T17:14:25.100Z,99.90
2022-07-27T17:16:55.444Z,99.90
2022-07-27T17:19:26.535Z,99.90
2022-07-27T17:21:56.844Z,99.90
2022-07-27T17:24:27.115Z,99.90
2022-07-27T17:26:57.622Z,99.90
2022-07-27T17:29:28.336Z,99.90
2022-07-27T17:31:58.540Z,99.90
2022-07-27T17:34:29.376Z,99.90
2022-07-27T17:36:59.965Z,99.90
2022-07-27T17:39:31.971Z,99.90
2022-07-27T17:42:02.539Z,99.90
2022-07-27T17:44:33.290Z,99.90
2022-07-27T17:47:05.836Z,99.90
2022-07-27T17:49:36.604Z,99.90
2022-07-27T17:52:08.967Z,99.90
2022-07-27T17:54:39.290Z,99.90
2022-07-27T17:57:10.741Z,99.90
2022-07-27T17:59:41.309Z,99.90
2022-07-27T18:02:11.850Z,99.90
2022-07-27T18:04:42.269Z,99.90
2022-07-27T18:07:14.502Z,99.90
2022-07-27T18:09:45.023Z,99.90
2022-07-27T18:12:16.165Z,99.90
2022-07-27T18:15:06.368Z,99.90
2022-07-27T18:17:41.083Z,99.90
2022-07-27T18:20:13.717Z,99.90
2022-07-27T18:22:45.063Z,99.90
2022-07-27T18:25:15.391Z,99.90
2022-07-27T18:27:47.209Z,99.90
2022-07-27T18:30:18.189Z,99.90
2022-07-27T18:32:48.569Z,99.90
2022-07-27T18:35:20.528Z,99.90
2022-07-27T18:37:51.018Z,99.90
2022-07-27T18:40:21.693Z,99.90
2022-07-27T18:42:51.996Z,99.90
2022-07-27T18:45:22.307Z,99.90
2022-07-27T18:48:04.933Z,99.90
2022-07-27T18:50:39.197Z,99.90
2022-07-27T18:53:10.784Z,99.90
2022-07-27T18:55:41.741Z,99.90
2022-07-27T18:58:12.228Z,99.90
2022-07-27T19:00:42.741Z,99.90
2022-07-27T19:03:12.976Z,99.90
2022-07-27T19:05:46.761Z,99.90
2022-07-27T19:08:17.034Z,99.90
2022-07-27T19:10:47.728Z,99.90
2022-07-27T19:13:18.187Z,99.90
2022-07-27T19:15:48.629Z,99.90
2022-07-27T19:18:18.884Z,99.90
2022-07-27T19:20:49.318Z,99.90
2022-07-27T19:23:19.638Z,99.90
2022-07-27T19:25:50.121Z,99.90
2022-07-27T19:28:22.831Z,99.90
2022-07-27T19:30:53.274Z,99.90
2022-07-27T19:33:23.754Z,99.90
2022-07-27T19:35:54.612Z,99.90
2022-07-27T19:38:25.205Z,99.90
2022-07-27T19:40:57.327Z,99.90
2022-07-27T19:43:27.636Z,99.90
2022-07-27T19:45:58.213Z,99.90
2022-07-27T19:48:30.143Z,99.90
2022-07-27T19:51:06.689Z,99.90
2022-07-27T19:53:37.898Z,99.90
2022-07-27T19:56:08.425Z,99.90
2022-07-27T19:58:38.719Z,99.90
2022-07-27T20:01:09.597Z,99.90
2022-07-27T20:03:52.256Z,99.90
2022-07-27T20:06:27.240Z,99.90
2022-07-27T20:09:01.473Z,99.90
2022-07-27T20:11:33.122Z,99.90
2022-07-27T20:14:05.581Z,99.90
2022-07-27T20:16:40.086Z,99.90
2022-07-27T20:19:10.630Z,99.90
2022-07-27T20:21:42.472Z,99.90
2022-07-27T20:24:12.892Z,99.90
2022-07-27T20:26:47.057Z,99.90
2022-07-27T20:29:19.453Z,99.90
2022-07-27T20:31:49.798Z,99.90
2022-07-27T20:38:03.192Z,99.90
2022-07-27T20:40:33.894Z,99.90
2022-07-27T20:43:04.344Z,99.90
2022-07-27T20:45:37.611Z,99.90
2022-07-27T20:48:08.485Z,99.90
2022-07-27T20:50:38.882Z,99.90
2022-07-27T20:53:09.344Z,99.90
2022-07-27T20:55:40.060Z,99.90
2022-07-27T20:58:10.586Z,99.90
2022-07-27T21:00:41.286Z,99.90
2022-07-27T21:03:11.772Z,99.90
2022-07-27T21:05:42.204Z,99.90
2022-07-27T21:08:12.687Z,99.90
2022-07-27T21:10:43.149Z,99.90
2022-07-27T21:13:13.768Z,99.90
2022-07-27T21:15:44.162Z,99.90
2022-07-27T21:18:14.791Z,99.90
2022-07-27T21:20:45.184Z,99.90
2022-07-27T21:23:33.355Z,99.90
2022-07-27T21:26:04.969Z,99.90
2022-07-27T21:28:35.911Z,99.90
2022-07-27T21:31:06.950Z,99.90
2022-07-27T21:33:39.809Z,99.90
2022-07-27T21:36:10.860Z,99.90
2022-07-27T21:38:41.243Z,99.90
2022-07-27T21:41:11.805Z,99.90
2022-07-27T21:43:42.165Z,99.90
2022-07-27T21:46:12.566Z,99.90
2022-07-27T21:48:42.967Z,99.90
2022-07-27T21:51:13.330Z,99.90
2022-07-27T21:53:44.791Z,99.90
2022-07-27T21:56:15.956Z,99.90
2022-07-27T21:58:48.263Z,99.90
2022-07-27T22:01:19.425Z,99.90
2022-07-27T22:03:50.034Z,99.90
2022-07-27T22:06:20.600Z,99.90
2022-07-27T22:08:51.004Z,99.90
2022-07-27T22:11:21.288Z,99.90
2022-07-27T22:13:51.605Z,99.90
2022-07-27T22:16:21.884Z,99.90
2022-07-27T22:18:52.353Z,99.90
2022-07-27T22:21:22.564Z,99.90
2022-07-27T22:23:52.864Z,99.90
2022-07-27T22:26:23.132Z,99.90
2022-07-27T22:28:53.502Z,99.90
2022-07-27T22:31:23.758Z,99.90
2022-07-27T22:33:54.632Z,99.90
2022-07-27T22:36:24.888Z,99.90
2022-07-27T22:38:55.092Z,99.90
2022-07-27T22:41:25.313Z,99.90
2022-07-27T22:43:55.573Z,99.90
2022-07-27T22:46:26.029Z,99.90
2022-07-27T22:48:56.389Z,99.90
2022-07-27T22:51:48.662Z,99.90
2022-07-27T22:54:19.576Z,99.90
2022-07-27T22:56:50.014Z,99.90
2022-07-27T22:59:20.197Z,99.90
2022-07-27T23:01:51.122Z,99.90
2022-07-27T23:04:21.864Z,99.90
2022-07-27T23:06:52.273Z,99.90
2022-07-27T23:09:23.339Z,99.90
2022-07-27T23:11:53.903Z,99.90
2022-07-27T23:14:27.829Z,99.90
2022-07-27T23:16:58.122Z,99.90
2022-07-27T23:19:29.399Z,99.90
2022-07-27T23:22:01.372Z,99.90
2022-07-27T23:24:32.102Z,99.90
2022-07-27T23:27:04.507Z,99.90
2022-07-27T23:29:34.934Z,99.90
2022-07-27T23:32:06.809Z,99.90
2022-07-27T23:34:37.890Z,99.90
2022-07-27T23:37:08.289Z,99.90
2022-07-27T23:39:38.476Z,99.90
2022-07-27T23:42:08.885Z,99.90
2022-07-27T23:44:39.127Z,99.90
2022-07-27T23:47:09.446Z,99.90
2022-07-27T23:49:43.475Z,99.90
2022-07-27T23:52:13.687Z,99.90
2022-07-27T23:54:44.005Z,99.90
2022-07-27T23:57:14.267Z,99.90
2022-07-27T23:59:44.479Z,99.90
